Time;durP1;ratioP1;P1;durP2;ratioP2;P2;SDS_P1;SDS_P2;PMS_P1;PMS_P2;Temp;Humidity;BMP_temperature;BMP_pressure;BME280_temperature;BME280_humidity;BME280_pressure;Samples;Min_cycle;Max_cycle;Signal;HPM_P1;HPM_P2
2022/08/26 00:00:38;;;;;;;41.83;29.38;;;;;;;26.93;60.42;101500.53;5091506;28;20117;-70
2022/08/26 00:03:03;;;;;;;36.15;27.17;;;;;;;27.16;59.35;101503.22;5091777;28;20032;-70
2022/08/26 00:05:28;;;;;;;41.83;29.13;;;;;;;27.29;59.13;101505.84;5093815;28;20028;-71
2022/08/26 00:07:54;;;;;;;43.53;28.88;;;;;;;26.50;61.35;101516.03;5095706;28;20036;-69
2022/08/26 00:10:20;;;;;;;33.42;26.73;;;;;;;26.85;60.18;101520.63;5096027;28;20032;-69
2022/08/26 00:12:46;;;;;;;45.38;28.92;;;;;;;27.14;58.92;101520.13;5095524;28;20540;-69
2022/08/26 00:15:14;;;;;;;32.60;25.90;;;;;;;26.90;59.71;101525.19;5095227;28;20044;-70
2022/08/26 00:17:40;;;;;;;46.88;24.95;;;;;;;26.89;58.54;101527.13;5095342;28;20122;-70
2022/08/26 00:20:08;;;;;;;34.45;25.85;;;;;;;27.05;57.85;101519.25;5095454;28;20040;-71
2022/08/26 00:22:34;;;;;;;32.55;24.33;;;;;;;26.68;58.66;101520.50;5095338;28;20112;-69
2022/08/26 00:24:59;;;;;;;39.85;25.08;;;;;;;27.27;57.51;101515.59;5095710;28;20371;-69
2022/08/26 00:27:25;;;;;;;41.13;24.20;;;;;;;27.16;57.27;101505.97;5095077;28;20120;-71
2022/08/26 00:29:50;;;;;;;34.22;25.42;;;;;;;26.72;58.76;101517.97;5095382;28;20032;-68
2022/08/26 00:32:16;;;;;;;34.65;24.42;;;;;;;26.90;57.92;101517.75;5095281;28;20035;-69
2022/08/26 00:34:41;;;;;;;36.20;22.73;;;;;;;27.06;58.00;101515.38;5095147;28;20040;-70
2022/08/26 00:37:06;;;;;;;32.03;21.83;;;;;;;26.75;58.49;101515.38;5095215;28;20044;-69
2022/08/26 00:39:32;;;;;;;40.60;22.10;;;;;;;26.66;58.26;101513.69;5087773;28;20126;-69
2022/08/26 00:41:57;;;;;;;33.50;22.08;;;;;;;26.32;59.52;101517.03;5074608;28;20040;-70
2022/08/26 00:44:23;;;;;;;39.10;23.50;;;;;;;26.11;60.00;101515.91;5074636;28;20484;-69
2022/08/26 00:46:53;;;;;;;30.55;22.35;;;;;;;26.52;58.91;101510.19;5074807;28;20033;-70
2022/08/26 00:49:27;;;;;;;33.60;22.92;;;;;;;26.60;58.48;101512.19;5057198;28;20166;-69
2022/08/26 00:51:55;;;;;;;32.28;21.55;;;;;;;26.12;59.65;101505.72;5074921;28;20056;-70
2022/08/26 00:54:25;;;;;;;36.92;21.50;;;;;;;26.26;59.39;101512.78;5056655;28;20039;-68
2022/08/26 00:56:56;;;;;;;33.50;19.85;;;;;;;26.54;57.92;101510.69;5074786;28;20036;-69
2022/08/26 00:59:23;;;;;;;25.52;18.35;;;;;;;26.60;58.09;101503.91;5074616;28;20048;-70
2022/08/26 01:01:49;;;;;;;27.05;17.85;;;;;;;26.99;56.79;101508.69;5074573;28;20543;-70
2022/08/26 01:04:19;;;;;;;38.80;19.83;;;;;;;26.71;57.54;101519.91;5075202;28;20032;-70
2022/08/26 01:06:45;;;;;;;33.60;17.45;;;;;;;26.80;57.44;101515.25;5094323;28;20032;-69
2022/08/26 01:09:11;;;;;;;29.58;16.67;;;;;;;26.56;58.00;101520.28;5094495;28;20028;-70
2022/08/26 01:11:36;;;;;;;31.75;16.60;;;;;;;26.72;57.61;101516.03;5094880;28;20297;-69
2022/08/26 01:14:04;;;;;;;28.48;16.17;;;;;;;27.16;56.28;101519.78;5076436;28;20036;-70
2022/08/26 01:16:32;;;;;;;31.88;16.77;;;;;;;27.01;56.99;101518.25;5083342;28;20024;-64
2022/08/26 01:19:06;;;;;;;29.05;16.35;;;;;;;26.82;56.90;101523.22;5074672;28;20051;-65
2022/08/26 01:21:38;;;;;;;28.90;16.00;;;;;;;26.75;57.32;101520.91;5073891;28;20556;-64
2022/08/26 01:24:04;;;;;;;31.80;16.02;;;;;;;26.97;56.65;101514.50;5073959;28;20124;-65
2022/08/26 01:26:34;;;;;;;25.13;15.82;;;;;;;26.49;59.01;101519.09;5073746;28;20117;-64
2022/08/26 01:29:03;;;;;;;27.63;14.85;;;;;;;26.98;56.64;101512.56;5073826;28;20043;-64
2022/08/26 01:31:36;;;;;;;26.88;15.95;;;;;;;26.83;57.38;101528.41;5078591;28;20111;-64
2022/08/26 01:34:29;;;;;;;29.60;14.73;;;;;;;26.30;58.79;101516.53;5077170;28;20162;-65
2022/08/26 01:37:06;;;;;;;26.55;13.85;;;;;;;26.27;58.87;101516.34;5089087;28;20052;-65
2022/08/26 01:39:34;;;;;;;22.58;13.00;;;;;;;26.17;58.93;101525.69;5093942;28;20067;-66
2022/08/26 01:42:02;;;;;;;23.83;13.25;;;;;;;26.23;59.41;101520.88;5093806;28;20404;-65
2022/08/26 01:44:35;;;;;;;26.00;14.40;;;;;;;26.34;58.71;101508.47;5093724;28;20040;-65
2022/08/26 01:47:01;;;;;;;23.85;11.60;;;;;;;26.41;58.32;101519.88;5093735;28;20040;-64
2022/08/26 01:49:28;;;;;;;28.80;11.93;;;;;;;26.52;57.87;101529.50;5075302;28;20054;-66
2022/08/26 01:51:55;;;;;;;21.35;11.13;;;;;;;27.07;56.11;101524.44;5094348;28;20092;-63
2022/08/26 01:54:23;;;;;;;19.20;11.35;;;;;;;26.79;56.93;101526.63;5093580;28;20377;-65
2022/08/26 01:56:51;;;;;;;19.42;10.88;;;;;;;27.03;56.36;101529.00;5093462;28;20499;-64
2022/08/26 01:59:19;;;;;;;24.17;10.77;;;;;;;27.13;56.12;101531.44;5093440;28;20446;-65
2022/08/26 02:01:45;;;;;;;19.83;10.70;;;;;;;26.79;57.22;101535.69;5093049;28;20032;-64
2022/08/26 02:04:36;;;;;;;20.85;9.75;;;;;;;26.78;56.78;101536.84;5093736;28;20048;-65
2022/08/26 02:07:06;;;;;;;16.83;8.88;;;;;;;26.20;58.58;101538.81;5073196;28;20040;-66
2022/08/26 02:09:32;;;;;;;17.80;8.68;;;;;;;26.48;58.06;101539.50;5054897;28;20024;-64
2022/08/26 02:12:00;;;;;;;18.95;9.40;;;;;;;26.41;57.71;101544.66;5073053;28;20541;-63
2022/08/26 02:14:33;;;;;;;19.35;8.02;;;;;;;26.42;58.01;101538.00;5072625;28;20074;-65
2022/08/26 02:16:59;;;;;;;12.30;6.65;;;;;;;25.73;59.73;101542.94;5072580;28;20056;-65
2022/08/26 02:19:33;;;;;;;15.68;6.95;;;;;;;26.43;58.21;101532.22;5072870;28;20028;-65
2022/08/26 02:22:02;;;;;;;17.30;6.82;;;;;;;26.71;56.43;101543.94;5073201;28;20021;-65
2022/08/26 02:24:44;;;;;;;15.82;6.90;;;;;;;26.62;57.06;101545.78;5072711;28;20516;-64
2022/08/26 02:27:10;;;;;;;16.88;6.07;;;;;;;26.17;58.29;101549.66;5072312;28;20035;-64
2022/08/26 02:29:42;;;;;;;15.68;6.38;;;;;;;25.83;59.31;101553.72;5072592;28;20033;-63
2022/08/26 02:32:09;;;;;;;18.23;6.32;;;;;;;26.20;57.79;101541.59;5072428;28;20033;-64
2022/08/26 02:34:34;;;;;;;12.95;5.95;;;;;;;27.17;54.63;101544.28;5072411;28;20037;-64
2022/08/26 02:37:05;;;;;;;15.55;5.88;;;;;;;26.65;55.92;101542.41;5072781;28;20054;-64
2022/08/26 02:39:31;;;;;;;;;;;;;;;27.27;54.15;101534.91;5072845;28;20056;-65
2022/08/26 02:41:57;;;;;;;14.48;5.75;;;;;;;26.94;55.21;101537.22;5072353;28;20000;-64
2022/08/26 02:44:24;;;;;;;12.15;5.47;;;;;;;27.32;53.53;101532.03;5072199;28;20036;-64
2022/08/26 02:46:50;;;;;;;11.45;4.30;;;;;;;26.45;56.53;101527.19;5072249;28;20037;-64
2022/08/26 02:49:15;;;;;;;14.68;4.60;;;;;;;27.26;54.26;101533.28;5072803;28;20043;-65
2022/08/26 02:51:41;;;;;;;8.77;3.90;;;;;;;26.84;55.00;101532.81;5072125;28;20358;-65
2022/08/26 02:54:06;;;;;;;13.63;4.75;;;;;;;27.01;54.73;101532.06;5072111;28;20036;-65
2022/08/26 02:56:33;;;;;;;17.50;4.90;;;;;;;26.56;56.42;101539.56;5072144;28;20037;-65
2022/08/26 02:58:58;;;;;;;13.63;3.72;;;;;;;26.73;56.23;101533.41;5089765;28;20119;-64
2022/08/26 03:01:28;;;;;;;12.68;3.97;;;;;;;26.74;56.05;101532.25;5092060;28;20032;-66
2022/08/26 03:03:55;;;;;;;11.77;3.47;;;;;;;26.40;56.98;101534.75;5092918;28;20442;-63
2022/08/26 03:06:21;;;;;;;10.82;3.35;;;;;;;26.28;56.99;101531.78;5092161;28;20039;-65
2022/08/26 03:08:47;;;;;;;8.18;2.88;;;;;;;26.18;57.58;101535.56;5091870;28;20119;-65
2022/08/26 03:11:13;;;;;;;11.27;2.85;;;;;;;26.31;57.48;101531.97;5092122;28;20036;-66
2022/08/26 03:13:39;;;;;;;8.38;3.03;;;;;;;26.00;58.50;101531.84;5091771;28;20039;-66
2022/08/26 03:16:05;;;;;;;9.43;2.70;;;;;;;26.37;57.14;101535.41;5085764;28;20484;-65
2022/08/26 03:18:31;;;;;;;13.23;2.60;;;;;;;25.70;59.22;101535.31;5071794;28;20508;-65
2022/08/26 03:20:57;;;;;;;9.35;3.13;;;;;;;25.92;58.52;101531.78;5071681;28;20090;-66
2022/08/26 03:23:23;;;;;;;15.23;3.25;;;;;;;26.00;58.15;101528.28;5071594;28;20165;-66
2022/08/26 03:25:50;;;;;;;9.93;2.25;;;;;;;26.03;58.20;101522.97;5071729;28;20040;-64
2022/08/26 03:28:16;;;;;;;13.20;3.33;;;;;;;26.19;57.58;101522.63;5072076;28;20091;-65
2022/08/26 03:30:43;;;;;;;7.60;1.88;;;;;;;26.59;56.21;101524.34;5071602;28;20047;-65
2022/08/26 03:33:11;;;;;;;10.57;1.90;;;;;;;26.32;56.55;101530.03;5090292;28;20149;-66
2022/08/26 03:35:39;;;;;;;10.98;2.13;;;;;;;26.27;57.14;101527.38;5091621;28;20119;-64
2022/08/26 03:38:08;;;;;;;13.15;2.33;;;;;;;26.64;56.25;101516.75;5073365;28;20522;-66
2022/08/26 03:40:37;;;;;;;6.82;1.60;;;;;;;26.89;54.83;101509.75;5091174;28;20106;-66
2022/08/26 03:43:04;;;;;;;7.78;1.65;;;;;;;26.12;57.03;101523.06;5092426;28;20028;-66
2022/08/26 03:45:31;;;;;;;9.13;1.85;;;;;;;25.80;57.97;101521.31;5091601;28;20077;-65
2022/08/26 03:47:56;;;;;;;5.28;1.33;;;;;;;26.48;56.22;101507.25;5091861;28;20502;-66
2022/08/26 03:50:23;;;;;;;10.77;2.03;;;;;;;26.89;54.53;101507.81;5091838;28;20033;-66
2022/08/26 03:52:50;;;;;;;6.75;1.38;;;;;;;25.86;57.72;101513.75;5091555;28;20139;-66
2022/08/26 03:55:17;;;;;;;7.88;1.20;;;;;;;26.44;56.39;101516.47;5092085;28;20093;-66
2022/08/26 03:57:42;;;;;;;11.32;1.75;;;;;;;26.06;57.46;101527.88;5091723;28;20048;-66
2022/08/26 04:00:13;;;;;;;16.52;2.88;;;;;;;26.30;56.77;101527.56;5091636;28;20495;-64
2022/08/26 04:02:38;;;;;;;19.60;2.13;;;;;;;26.36;56.56;101525.50;5075596;28;20037;-65
2022/08/26 04:05:04;;;;;;;12.60;1.58;;;;;;;26.93;54.89;101530.06;5070736;28;20044;-66
2022/08/26 04:07:29;;;;;;;8.18;1.83;;;;;;;26.92;54.98;101531.22;5077187;28;20498;-65
2022/08/26 04:09:56;;;;;;;10.73;1.90;;;;;;;26.69;55.20;101538.69;5091473;28;20094;-66
2022/08/26 04:12:22;;;;;;;10.93;1.58;;;;;;;26.27;56.55;101530.97;5091201;28;20055;-65
2022/08/26 04:14:48;;;;;;;8.90;2.80;;;;;;;26.45;56.09;101532.72;5090649;28;20051;-65
2022/08/26 04:17:14;;;;;;;12.52;1.98;;;;;;;26.70;55.39;101528.47;5091131;28;20028;-68
2022/08/26 04:19:39;;;;;;;9.77;1.77;;;;;;;26.37;56.01;101530.72;5091611;28;20054;-66
2022/08/26 04:22:05;;;;;;;14.82;2.03;;;;;;;27.03;53.89;101520.72;5091932;28;20479;-65
2022/08/26 04:24:30;;;;;;;9.73;1.77;;;;;;;25.96;57.67;101516.25;5084374;28;20106;-67
2022/08/26 04:26:56;;;;;;;11.05;1.85;;;;;;;26.53;55.63;101514.59;5071309;28;20075;-66
2022/08/26 04:29:24;;;;;;;11.20;2.33;;;;;;;26.68;55.48;101525.22;5071027;28;20095;-65
2022/08/26 04:31:50;;;;;;;9.00;1.40;;;;;;;26.61;55.14;101516.59;5070682;28;20124;-65
2022/08/26 04:34:16;;;;;;;9.60;2.03;;;;;;;26.44;55.87;101514.53;5071539;28;20048;-66
2022/08/26 04:36:43;;;;;;;8.80;2.15;;;;;;;26.41;55.98;101531.72;5070935;28;20162;-65
2022/08/26 04:39:16;;;;;;;16.95;4.38;;;;;;;26.75;54.87;101525.63;5070957;28;20039;-66
2022/08/26 04:41:43;;;;;;;16.38;3.08;;;;;;;26.78;55.07;101528.56;5078950;28;20062;-65
2022/08/26 04:44:09;;;;;;;10.52;2.00;;;;;;;26.14;56.91;101534.59;5081312;28;20033;-65
2022/08/26 04:46:35;;;;;;;10.23;1.77;;;;;;;26.18;56.28;101541.06;5080319;28;20024;-65
2022/08/26 04:49:01;;;;;;;9.10;1.58;;;;;;;26.36;56.32;101544.81;5081598;28;20401;-66
2022/08/26 04:51:27;;;;;;;12.00;2.00;;;;;;;26.99;54.25;101547.31;5081348;28;20043;-66
2022/08/26 04:53:55;;;;;;;17.00;2.03;;;;;;;26.52;56.06;101548.78;5084997;28;20448;-65
2022/08/26 04:56:21;;;;;;;7.45;1.40;;;;;;;26.67;55.23;101542.91;5083594;28;20491;-67
2022/08/26 04:58:48;;;;;;;7.22;1.98;;;;;;;26.67;55.41;101548.41;5086856;28;20028;-66
2022/08/26 05:01:13;;;;;;;9.02;1.58;;;;;;;26.78;54.47;101552.56;5084528;28;20032;-66
2022/08/26 05:03:39;;;;;;;10.65;1.80;;;;;;;26.32;55.98;101549.31;5084990;28;20050;-65
2022/08/26 05:06:04;;;;;;;11.68;1.60;;;;;;;26.06;56.77;101549.13;5075230;28;20032;-65
2022/08/26 05:08:30;;;;;;;15.95;2.10;;;;;;;26.75;55.30;101554.00;5092247;28;20037;-66
2022/08/26 05:10:55;;;;;;;12.85;1.92;;;;;;;26.28;56.50;101551.06;5087388;28;20051;-64
2022/08/26 05:13:23;;;;;;;9.02;1.83;;;;;;;26.90;54.00;101561.88;5085121;28;20028;-66
2022/08/26 05:15:49;;;;;;;13.85;2.00;;;;;;;26.68;54.72;101558.31;5093897;28;20084;-67
2022/08/26 05:18:16;;;;;;;11.20;1.60;;;;;;;26.33;55.89;101550.94;5093992;28;20040;-67
2022/08/26 05:20:45;;;;;;;21.52;1.92;;;;;;;26.95;53.74;101552.63;5090703;28;20056;-66
2022/08/26 05:23:11;;;;;;;6.50;1.45;;;;;;;27.00;53.83;101557.22;5093115;28;20036;-66
2022/08/26 05:25:42;;;;;;;9.23;1.65;;;;;;;27.02;53.25;101557.72;5093202;28;20028;-67
2022/08/26 05:28:09;;;;;;;6.82;1.40;;;;;;;26.90;53.85;101558.31;5091159;28;20044;-67
2022/08/26 05:30:35;;;;;;;19.15;2.35;;;;;;;26.94;54.04;101562.06;5093217;28;20091;-68
2022/08/26 05:33:01;;;;;;;8.20;1.60;;;;;;;26.54;55.03;101565.81;5087512;28;20032;-67
2022/08/26 05:35:32;;;;;;;13.40;1.85;;;;;;;26.36;55.72;101572.38;5091255;28;20173;-66
2022/08/26 05:37:59;;;;;;;11.30;1.67;;;;;;;26.39;55.36;101567.03;5083125;28;20132;-68
2022/08/26 05:40:25;;;;;;;17.55;1.98;;;;;;;26.54;54.88;101571.34;5084379;28;20036;-68
2022/08/26 05:42:51;;;;;;;8.27;2.05;;;;;;;26.37;55.83;101571.22;5090263;28;20031;-68
2022/08/26 05:45:17;;;;;;;14.25;2.10;;;;;;;26.82;53.74;101568.16;5083795;28;20429;-67
2022/08/26 05:47:43;;;;;;;11.25;1.95;;;;;;;26.85;54.08;101574.97;5092964;28;20040;-68
2022/08/26 05:50:08;;;;;;;11.23;1.92;;;;;;;26.99;53.59;101583.97;5089668;28;20059;-67
2022/08/26 05:52:34;;;;;;;10.05;2.17;;;;;;;26.58;54.93;101575.94;5088433;28;20380;-66
2022/08/26 05:55:00;;;;;;;22.45;2.35;;;;;;;27.12;52.85;101583.09;5080855;28;20032;-67
2022/08/26 05:57:27;;;;;;;12.70;2.08;;;;;;;27.04;53.60;101588.56;5083588;28;20484;-67
2022/08/26 05:59:53;;;;;;;9.30;2.22;;;;;;;27.01;53.85;101583.69;5077742;28;20036;-65
2022/08/26 06:02:18;;;;;;;14.73;3.17;;;;;;;26.83;53.63;101585.50;5072443;28;20158;-68
2022/08/26 06:04:43;;;;;;;11.50;2.42;;;;;;;26.69;54.23;101582.00;5054844;28;20037;-69
2022/08/26 06:07:09;;;;;;;13.25;2.40;;;;;;;26.16;56.13;101581.13;5073637;28;20020;-72
2022/08/26 06:09:37;;;;;;;13.35;2.13;;;;;;;25.12;59.55;101589.31;5072480;28;20059;-71
2022/08/26 06:12:04;;;;;;;8.75;1.55;;;;;;;26.29;55.82;101581.06;5072987;28;20033;-68
2022/08/26 06:14:29;;;;;;;10.65;2.28;;;;;;;26.13;56.52;101584.47;5072697;28;20128;-69
2022/08/26 06:16:54;;;;;;;15.40;3.28;;;;;;;26.19;56.28;101586.00;5083262;28;20063;-69
2022/08/26 06:19:20;;;;;;;12.48;2.58;;;;;;;26.35;55.66;101587.25;5073165;28;20051;-70
2022/08/26 06:21:48;;;;;;;9.10;2.03;;;;;;;25.83;57.51;101592.28;5071591;28;20500;-70
2022/08/26 06:27:04;;;;;;;13.07;1.83;;;;;;;25.98;57.14;101594.69;5086708;28;20044;-69
2022/08/26 06:29:32;;;;;;;8.18;1.70;;;;;;;26.02;56.87;101603.16;5074235;28;20040;-70
2022/08/26 06:31:58;;;;;;;12.98;1.92;;;;;;;25.78;57.60;101592.41;5076368;28;20036;-71
2022/08/26 06:34:27;;;;;;;21.80;2.55;;;;;;;25.96;57.41;101607.94;5059046;28;20122;-69
2022/08/26 06:36:52;;;;;;;16.77;2.42;;;;;;;25.47;58.83;101612.59;5071319;28;20059;-69
2022/08/26 06:39:18;;;;;;;12.95;2.20;;;;;;;25.68;58.40;101606.38;5076878;28;20036;-70
2022/08/26 06:41:44;;;;;;;9.13;2.10;;;;;;;26.31;56.46;101608.31;5084080;28;20039;-70
2022/08/26 06:44:12;;;;;;;13.60;1.90;;;;;;;26.12;56.96;101616.75;5078548;28;20028;-71
2022/08/26 06:46:37;;;;;;;10.07;1.98;;;;;;;25.85;57.60;101619.50;5086467;28;20069;-69
2022/08/26 06:49:04;;;;;;;6.75;1.50;;;;;;;25.93;57.57;101616.03;5078910;28;20488;-70
2022/08/26 06:51:32;;;;;;;12.02;1.92;;;;;;;26.30;56.57;101621.25;5073639;28;20100;-70
2022/08/26 06:53:59;;;;;;;12.30;2.03;;;;;;;26.13;56.38;101626.63;5090829;28;20040;-71
2022/08/26 06:56:35;;;;;;;12.27;1.65;;;;;;;26.07;56.71;101625.13;5083175;28;20044;-70
2022/08/26 06:59:02;;;;;;;7.82;2.03;;;;;;;26.05;56.93;101627.31;5070415;28;20112;-70
2022/08/26 07:01:31;;;;;;;7.85;2.30;;;;;;;26.72;54.91;101628.28;5070421;28;20514;-70
2022/08/26 07:03:59;;;;;;;7.47;1.40;;;;;;;26.17;56.30;101630.41;5081692;28;20034;-70
2022/08/26 07:06:27;;;;;;;7.05;1.50;;;;;;;26.02;56.76;101626.00;5081766;28;20036;-68
2022/08/26 07:09:00;;;;;;;8.25;1.48;;;;;;;25.99;56.88;101626.63;5089940;28;20143;-70
2022/08/26 07:11:26;;;;;;;11.48;1.70;;;;;;;25.87;57.12;101633.78;5074204;28;20047;-71
2022/08/26 07:13:52;;;;;;;17.73;3.28;;;;;;;26.47;55.40;101631.63;5080965;28;20039;-69
2022/08/26 07:16:18;;;;;;;16.65;2.50;;;;;;;25.88;57.42;101630.75;5087311;28;20043;-70
2022/08/26 07:18:44;;;;;;;8.60;1.83;;;;;;;26.72;54.44;101645.66;5074772;28;20041;-69
2022/08/26 07:21:14;;;;;;;12.88;1.83;;;;;;;26.40;55.31;101640.31;5075224;28;20048;-69
2022/08/26 07:23:40;;;;;;;5.78;1.38;;;;;;;26.88;54.29;101641.38;5069242;28;20053;-69
2022/08/26 07:26:14;;;;;;;8.23;1.65;;;;;;;26.93;53.88;101648.69;5075471;28;20085;-69
2022/08/26 07:28:39;;;;;;;11.95;1.50;;;;;;;26.91;54.12;101642.69;5090688;28;20031;-70
2022/08/26 07:31:07;;;;;;;11.50;1.60;;;;;;;27.37;52.63;101642.31;5090660;28;20035;-71
2022/08/26 07:33:33;;;;;;;9.98;2.15;;;;;;;27.43;52.50;101652.91;5072446;28;20060;-71
2022/08/26 07:35:59;;;;;;;7.25;1.17;;;;;;;27.14;53.59;101649.81;5085785;28;20032;-70
2022/08/26 07:38:24;;;;;;;10.70;2.10;;;;;;;27.73;51.53;101651.25;5077016;28;20043;-70
2022/08/26 07:40:49;;;;;;;10.23;2.15;;;;;;;27.41;52.29;101648.84;5059869;28;20033;-71
2022/08/26 07:43:15;;;;;;;8.98;1.95;;;;;;;27.21;52.48;101658.44;5079351;28;20539;-71
2022/08/26 07:45:41;;;;;;;7.93;1.63;;;;;;;26.48;55.17;101658.06;5074827;28;20043;-71
2022/08/26 07:48:06;;;;;;;7.63;1.20;;;;;;;26.75;54.10;101661.56;5075520;28;20041;-70
2022/08/26 07:50:32;;;;;;;8.32;1.65;;;;;;;26.95;53.11;101657.47;5079200;28;20392;-69
2022/08/26 07:52:57;;;;;;;11.98;1.42;;;;;;;26.92;53.41;101661.69;5073905;28;20634;-70
2022/08/26 07:55:23;;;;;;;11.27;2.25;;;;;;;26.93;53.83;101668.84;5075536;28;20353;-70
2022/08/26 07:57:48;;;;;;;9.30;1.73;;;;;;;27.20;52.96;101673.41;5074566;28;20063;-70
2022/08/26 08:00:15;;;;;;;11.02;2.67;;;;;;;27.09;52.81;101673.94;5075101;28;20032;-70
2022/08/26 08:02:43;;;;;;;14.82;2.28;;;;;;;27.32;52.66;101676.34;5083277;28;20048;-71
2022/08/26 08:05:10;;;;;;;9.00;1.70;;;;;;;27.50;51.93;101674.53;5070925;28;20494;-68
2022/08/26 08:07:36;;;;;;;6.53;1.13;;;;;;;27.18;52.52;101670.13;5076836;28;20035;-69
2022/08/26 08:10:01;;;;;;;8.13;1.33;;;;;;;27.85;50.68;101676.31;5080891;28;20032;-71
2022/08/26 08:12:27;;;;;;;9.05;1.40;;;;;;;27.34;52.09;101670.56;5077416;28;20044;-70
2022/08/26 08:14:52;;;;;;;22.40;3.33;;;;;;;28.07;50.68;101667.91;5070154;28;20051;-70
2022/08/26 08:17:17;;;;;;;7.05;2.13;;;;;;;27.57;51.07;101674.91;5074974;28;20041;-71
2022/08/26 08:19:43;;;;;;;10.25;1.92;;;;;;;27.05;52.65;101670.19;5070239;28;20038;-70
2022/08/26 08:22:09;;;;;;;9.85;1.55;;;;;;;27.34;51.84;101684.38;5076204;28;20024;-69
2022/08/26 08:24:34;;;;;;;4.18;1.00;;;;;;;27.43;51.61;101674.19;5076728;28;20044;-72
2022/08/26 08:27:02;;;;;;;3.80;1.08;;;;;;;27.98;50.11;101677.34;5070302;28;20545;-69
2022/08/26 08:29:28;;;;;;;14.80;1.63;;;;;;;28.01;50.13;101683.03;5081221;28;20570;-69
2022/08/26 08:31:55;;;;;;;8.15;1.23;;;;;;;27.88;50.01;101685.88;5083415;28;20185;-70
2022/08/26 08:34:21;;;;;;;6.22;1.25;;;;;;;27.47;50.57;101681.53;5066579;28;20473;-68
2022/08/26 08:36:46;;;;;;;11.32;1.88;;;;;;;27.93;50.13;101692.06;5080576;28;20039;-69
2022/08/26 08:39:13;;;;;;;6.13;1.00;;;;;;;27.54;51.15;101692.91;5077319;28;20602;-71
2022/08/26 08:41:44;;;;;;;5.38;1.20;;;;;;;27.67;50.71;101691.19;5070927;28;20574;-70
2022/08/26 08:44:18;;;;;;;12.70;2.10;;;;;;;28.01;49.36;101693.28;5075194;28;20098;-71
2022/08/26 08:46:50;;;;;;;14.60;1.20;;;;;;;27.92;49.97;101695.97;5077229;28;20037;-70
2022/08/26 08:49:16;;;;;;;9.77;1.17;;;;;;;27.47;51.06;101697.28;5083094;28;20039;-69
2022/08/26 08:51:47;;;;;;;11.63;2.47;;;;;;;26.73;52.35;101701.63;5080080;28;20130;-70
2022/08/26 08:54:13;;;;;;;11.93;1.85;;;;;;;26.61;53.08;101699.38;5089356;28;20511;-71
2022/08/26 08:56:51;;;;;;;5.13;1.42;;;;;;;26.70;52.85;101689.28;5090138;28;20028;-70
2022/08/26 08:59:26;;;;;;;6.65;1.30;;;;;;;26.52;53.47;101694.91;5089754;28;20028;-71
2022/08/26 09:01:52;;;;;;;8.07;1.48;;;;;;;26.74;52.80;101694.97;5080877;28;20044;-71
2022/08/26 09:04:23;;;;;;;10.48;1.80;;;;;;;26.65;53.39;101697.63;5073874;28;20123;-70
2022/08/26 09:06:54;;;;;;;9.75;1.77;;;;;;;27.23;51.68;101696.78;5070095;28;20064;-71
2022/08/26 09:09:39;;;;;;;6.85;1.45;;;;;;;27.23;50.68;101703.13;5072058;28;20044;-69
2022/08/26 09:12:13;;;;;;;10.68;2.15;;;;;;;26.90;51.97;101693.47;5090329;28;20228;-69
2022/08/26 09:14:39;;;;;;;10.13;2.10;;;;;;;27.07;51.92;101698.28;5089417;28;20087;-69
2022/08/26 09:17:32;;;;;;;10.57;2.13;;;;;;;27.11;52.06;101702.88;5076864;28;20052;-69
2022/08/26 09:20:12;;;;;;;9.32;1.40;;;;;;;26.65;53.30;101694.06;5089118;28;20559;-71
2022/08/26 09:22:39;;;;;;;11.65;1.75;;;;;;;27.18;51.98;101691.41;5085408;28;20115;-71
2022/08/26 09:25:09;;;;;;;8.63;1.65;;;;;;;27.15;51.54;101706.63;5090921;28;20032;-70
2022/08/26 09:27:41;;;;;;;11.15;1.42;;;;;;;27.17;51.07;101704.38;5074649;28;20086;-70
2022/08/26 09:30:11;;;;;;;9.15;1.25;;;;;;;27.13;51.25;101697.03;5070231;28;20420;-72
2022/08/26 09:32:36;;;;;;;12.13;2.42;;;;;;;27.57;49.95;101703.34;5083594;28;20124;-70
2022/08/26 09:35:22;;;;;;;13.27;2.30;;;;;;;28.19;48.47;101704.03;5089243;28;20166;-72
2022/08/26 09:37:48;;;;;;;8.82;1.73;;;;;;;27.17;50.36;101712.66;5069374;28;20033;-71
2022/08/26 09:40:16;;;;;;;10.27;1.58;;;;;;;27.79;48.98;101710.75;5077415;28;20499;-69
2022/08/26 09:42:41;;;;;;;9.30;1.85;;;;;;;27.59;50.18;101705.78;5088485;28;20097;-72
2022/08/26 09:45:09;;;;;;;12.13;1.58;;;;;;;27.62;50.04;101702.38;5072545;28;20041;-70
2022/08/26 09:47:40;;;;;;;10.25;1.30;;;;;;;27.66;49.40;101706.13;5077689;28;20048;-70
2022/08/26 09:50:24;;;;;;;9.88;1.77;;;;;;;26.86;51.06;101698.00;5085523;28;20048;-70
2022/08/26 09:53:11;;;;;;;6.65;1.10;;;;;;;27.24;50.34;101702.00;5071923;28;20346;-69
2022/08/26 09:55:40;;;;;;;11.82;1.45;;;;;;;27.03;50.83;101700.06;5074281;28;20050;-70
2022/08/26 09:58:07;;;;;;;7.30;1.20;;;;;;;27.12;51.05;101696.25;5084337;28;20035;-70
2022/08/26 10:00:54;;;;;;;14.65;2.03;;;;;;;26.35;52.93;101706.63;5091056;28;20480;-69
2022/08/26 10:03:27;;;;;;;9.95;1.38;;;;;;;27.14;50.55;101704.19;5089258;28;20036;-72
2022/08/26 10:06:01;;;;;;;10.50;1.45;;;;;;;26.61;52.32;101704.09;5075674;28;20028;-70
2022/08/26 10:08:33;;;;;;;5.45;1.40;;;;;;;27.70;49.53;101705.16;5072349;28;20045;-70
2022/08/26 10:11:01;;;;;;;6.15;1.08;;;;;;;27.17;50.62;101712.66;5081874;28;20123;-70
2022/08/26 10:13:30;;;;;;;6.60;1.23;;;;;;;27.36;50.32;101710.50;5078110;28;20043;-69
2022/08/26 10:16:08;;;;;;;10.25;1.70;;;;;;;26.91;50.71;101706.97;5077104;28;20040;-71
2022/08/26 10:18:58;;;;;;;7.50;1.35;;;;;;;27.57;49.43;101708.03;5087095;28;20431;-69
2022/08/26 10:21:31;;;;;;;10.55;2.20;;;;;;;27.47;49.45;101711.06;5079979;28;20044;-73
2022/08/26 10:24:01;;;;;;;4.88;1.17;;;;;;;27.09;50.05;101713.41;5072079;28;20049;-71
2022/08/26 10:26:38;;;;;;;11.07;1.15;;;;;;;27.70;48.70;101707.94;5092015;28;20052;-72
2022/08/26 10:29:33;;;;;;;5.57;0.82;;;;;;;27.36;49.59;101707.75;5085910;28;20040;-68
2022/08/26 10:32:03;;;;;;;6.07;1.30;;;;;;;26.68;51.02;101721.00;5079890;28;20372;-71
2022/08/26 10:34:30;;;;;;;;;;;;;;;26.54;51.46;101717.47;5079403;28;20036;-71
2022/08/26 10:37:28;;;;;;;7.40;1.13;;;;;;;27.10;50.60;101711.47;5065582;28;20350;-70
2022/08/26 10:40:06;;;;;;;4.88;1.33;;;;;;;26.69;51.48;101715.19;5002319;28;20045;-70
2022/08/26 10:42:56;;;;;;;10.55;1.48;;;;;;;26.78;51.12;101716.13;5000582;28;20507;-69
2022/08/26 10:45:26;;;;;;;14.40;1.10;;;;;;;26.44;51.93;101707.50;5001663;28;20093;-70
2022/08/26 10:47:59;;;;;;;;;;;;;;;27.60;48.70;101707.38;5007470;28;20052;-69
2022/08/26 10:50:38;;;;;;;3.58;0.98;;;;;;;26.83;51.05;101710.47;5006459;28;19925;-71
2022/08/26 10:53:09;;;;;;;8.35;1.38;;;;;;;27.35;49.57;101708.09;5005030;28;20042;-71
2022/08/26 10:55:36;;;;;;;10.70;1.33;;;;;;;27.06;50.24;101710.47;5002232;28;20078;-69
2022/08/26 10:58:24;;;;;;;6.10;0.77;;;;;;;27.58;49.18;101712.41;5005878;28;20041;-68
2022/08/26 11:04:03;;;;;;;5.70;1.10;;;;;;;27.29;49.57;101710.13;4950296;28;20050;-69
2022/08/26 11:06:30;;;;;;;5.60;1.08;;;;;;;27.65;49.25;101710.84;4951222;28;20047;-69
2022/08/26 11:08:57;;;;;;;7.07;1.10;;;;;;;27.57;49.35;101702.50;4951460;28;20102;-68
2022/08/26 11:11:40;;;;;;;5.22;1.08;;;;;;;27.78;48.89;101720.16;4949412;28;20088;-69
2022/08/26 11:14:08;;;;;;;5.75;1.50;;;;;;;28.38;47.41;101714.81;4948268;28;20043;-69
2022/08/26 11:16:39;;;;;;;3.10;0.80;;;;;;;27.74;48.26;101714.44;5000943;28;20470;-69
2022/08/26 11:19:08;;;;;;;9.10;1.00;;;;;;;27.30;49.49;101717.28;5007949;28;20138;-69
2022/08/26 11:22:04;;;;;;;6.22;0.85;;;;;;;27.42;49.07;101725.03;5004784;28;20050;-69
2022/08/26 11:24:43;;;;;;;7.38;0.65;;;;;;;27.48;48.66;101719.03;5006433;28;20037;-69
2022/08/26 11:27:30;;;;;;;7.93;1.02;;;;;;;27.83;47.56;101713.66;5006679;28;20037;-70
2022/08/26 11:29:58;;;;;;;3.88;1.02;;;;;;;28.09;46.95;101714.63;5003947;28;20046;-69
2022/08/26 11:32:33;;;;;;;4.93;1.55;;;;;;;28.00;47.23;101713.75;5006744;28;20165;-69